sensor_id;sensor_type;location;lat;lon;timestamp;temperature;humidity
78467;SHT31;67759;51.972;5.650;2023-04-09T00:01:48;12.4;62.2
78467;SHT31;67759;51.972;5.650;2023-04-09T00:04:18;12.4;62.2
78467;SHT31;67759;51.972;5.650;2023-04-09T00:06:48;12.4;62.3
78467;SHT31;67759;51.972;5.650;2023-04-09T00:09:18;12.3;62.7
78467;SHT31;67759;51.972;5.650;2023-04-09T00:11:48;12.3;62.8
78467;SHT31;67759;51.972;5.650;2023-04-09T00:14:18;12.3;62.4
78467;SHT31;67759;51.972;5.650;2023-04-09T00:16:47;12.3;62.8
78467;SHT31;67759;51.972;5.650;2023-04-09T00:19:17;12.3;62.8
78467;SHT31;67759;51.972;5.650;2023-04-09T00:21:47;12.3;62.4
78467;SHT31;67759;51.972;5.650;2023-04-09T00:24:17;12.3;62.8
78467;SHT31;67759;51.972;5.650;2023-04-09T00:26:46;12.3;61.9
78467;SHT31;67759;51.972;5.650;2023-04-09T00:29:16;12.4;62.4
78467;SHT31;67759;51.972;5.650;2023-04-09T00:31:46;12.4;62.4
78467;SHT31;67759;51.972;5.650;2023-04-09T00:34:16;12.4;62.2
78467;SHT31;67759;51.972;5.650;2023-04-09T00:36:46;12.4;61.8
78467;SHT31;67759;51.972;5.650;2023-04-09T00:39:16;12.4;62.0
78467;SHT31;67759;51.972;5.650;2023-04-09T00:41:46;12.4;62.3
78467;SHT31;67759;51.972;5.650;2023-04-09T00:44:15;12.4;61.8
78467;SHT31;67759;51.972;5.650;2023-04-09T00:46:45;12.4;62.3
78467;SHT31;67759;51.972;5.650;2023-04-09T00:49:15;12.4;62.2
78467;SHT31;67759;51.972;5.650;2023-04-09T00:51:45;12.5;62.0
78467;SHT31;67759;51.972;5.650;2023-04-09T00:54:15;12.5;61.7
78467;SHT31;67759;51.972;5.650;2023-04-09T00:56:48;12.5;62.3
78467;SHT31;67759;51.972;5.650;2023-04-09T00:59:18;12.5;62.0
78467;SHT31;67759;51.972;5.650;2023-04-09T01:01:48;12.5;62.3
78467;SHT31;67759;51.972;5.650;2023-04-09T01:04:18;12.5;62.0
78467;SHT31;67759;51.972;5.650;2023-04-09T01:06:51;12.5;61.7
78467;SHT31;67759;51.972;5.650;2023-04-09T01:09:27;12.5;61.9
78467;SHT31;67759;51.972;5.650;2023-04-09T01:12:09;12.5;61.9
78467;SHT31;67759;51.972;5.650;2023-04-09T01:14:49;12.6;61.7
78467;SHT31;67759;51.972;5.650;2023-04-09T01:17:25;12.6;62.0
78467;SHT31;67759;51.972;5.650;2023-04-09T01:20:02;12.6;61.6
78467;SHT31;67759;51.972;5.650;2023-04-09T01:22:44;12.6;61.6
78467;SHT31;67759;51.972;5.650;2023-04-09T01:25:32;12.7;61.6
78467;SHT31;67759;51.972;5.650;2023-04-09T01:28:17;12.7;61.4
78467;SHT31;67759;51.972;5.650;2023-04-09T01:30:51;12.7;61.3
78467;SHT31;67759;51.972;5.650;2023-04-09T01:33:23;12.7;61.2
78467;SHT31;67759;51.972;5.650;2023-04-09T01:35:56;12.7;60.9
78467;SHT31;67759;51.972;5.650;2023-04-09T01:38:27;12.7;61.0
78467;SHT31;67759;51.972;5.650;2023-04-09T01:40:59;12.7;61.2
78467;SHT31;67759;51.972;5.650;2023-04-09T01:43:31;12.7;61.3
78467;SHT31;67759;51.972;5.650;2023-04-09T01:46:03;12.7;61.0
78467;SHT31;67759;51.972;5.650;2023-04-09T01:48:33;12.7;61.1
78467;SHT31;67759;51.972;5.650;2023-04-09T01:51:03;12.6;61.5
78467;SHT31;67759;51.972;5.650;2023-04-09T01:53:33;12.6;61.7
78467;SHT31;67759;51.972;5.650;2023-04-09T01:56:03;12.6;61.7
78467;SHT31;67759;51.972;5.650;2023-04-09T01:58:33;12.6;61.1
78467;SHT31;67759;51.972;5.650;2023-04-09T02:01:07;12.6;62.3
78467;SHT31;67759;51.972;5.650;2023-04-09T02:03:43;12.6;62.2
78467;SHT31;67759;51.972;5.650;2023-04-09T02:06:24;12.6;61.4
78467;SHT31;67759;51.972;5.650;2023-04-09T02:08:59;12.5;61.8
78467;SHT31;67759;51.972;5.650;2023-04-09T02:11:34;12.4;62.3
78467;SHT31;67759;51.972;5.650;2023-04-09T02:14:06;12.4;62.4
78467;SHT31;67759;51.972;5.650;2023-04-09T02:16:39;12.4;62.5
78467;SHT31;67759;51.972;5.650;2023-04-09T02:19:09;12.4;62.6
78467;SHT31;67759;51.972;5.650;2023-04-09T02:21:38;12.4;62.4
78467;SHT31;67759;51.972;5.650;2023-04-09T02:24:08;12.4;62.6
78467;SHT31;67759;51.972;5.650;2023-04-09T02:26:38;12.4;62.4
78467;SHT31;67759;51.972;5.650;2023-04-09T02:29:07;12.3;62.5
78467;SHT31;67759;51.972;5.650;2023-04-09T02:31:37;12.3;62.7
78467;SHT31;67759;51.972;5.650;2023-04-09T02:34:06;12.3;62.7
78467;SHT31;67759;51.972;5.650;2023-04-09T02:36:36;12.3;62.7
78467;SHT31;67759;51.972;5.650;2023-04-09T02:39:05;12.2;62.5
78467;SHT31;67759;51.972;5.650;2023-04-09T02:41:37;12.2;62.8
78467;SHT31;67759;51.972;5.650;2023-04-09T02:44:06;12.2;62.7
78467;SHT31;67759;51.972;5.650;2023-04-09T02:46:37;12.1;63.0
78467;SHT31;67759;51.972;5.650;2023-04-09T02:49:09;12.1;63.2
78467;SHT31;67759;51.972;5.650;2023-04-09T02:51:41;12.1;63.3
78467;SHT31;67759;51.972;5.650;2023-04-09T02:54:12;12.0;63.5
78467;SHT31;67759;51.972;5.650;2023-04-09T02:56:42;12.0;63.3
78467;SHT31;67759;51.972;5.650;2023-04-09T02:59:12;12.0;63.5
78467;SHT31;67759;51.972;5.650;2023-04-09T03:01:42;12.0;63.3
78467;SHT31;67759;51.972;5.650;2023-04-09T03:04:12;12.0;63.4
78467;SHT31;67759;51.972;5.650;2023-04-09T03:06:42;12.0;63.3
78467;SHT31;67759;51.972;5.650;2023-04-09T03:09:11;12.0;63.1
78467;SHT31;67759;51.972;5.650;2023-04-09T03:11:41;12.0;62.9
78467;SHT31;67759;51.972;5.650;2023-04-09T03:14:10;12.0;63.2
78467;SHT31;67759;51.972;5.650;2023-04-09T03:16:40;12.0;62.9
78467;SHT31;67759;51.972;5.650;2023-04-09T03:19:09;12.0;62.8
78467;SHT31;67759;51.972;5.650;2023-04-09T03:21:39;12.0;62.7
78467;SHT31;67759;51.972;5.650;2023-04-09T03:24:09;11.9;63.0
78467;SHT31;67759;51.972;5.650;2023-04-09T03:26:38;11.9;62.4
78467;SHT31;67759;51.972;5.650;2023-04-09T03:29:08;11.9;62.5
78467;SHT31;67759;51.972;5.650;2023-04-09T03:31:39;11.9;62.4
78467;SHT31;67759;51.972;5.650;2023-04-09T03:34:09;11.9;62.5
78467;SHT31;67759;51.972;5.650;2023-04-09T03:36:39;11.8;62.2
78467;SHT31;67759;51.972;5.650;2023-04-09T03:39:09;11.8;62.7
78467;SHT31;67759;51.972;5.650;2023-04-09T03:41:40;11.8;62.8
78467;SHT31;67759;51.972;5.650;2023-04-09T03:44:10;11.8;63.0
78467;SHT31;67759;51.972;5.650;2023-04-09T03:46:40;11.8;63.1
78467;SHT31;67759;51.972;5.650;2023-04-09T03:49:09;11.8;63.3
78467;SHT31;67759;51.972;5.650;2023-04-09T03:51:39;11.8;63.0
78467;SHT31;67759;51.972;5.650;2023-04-09T03:54:09;11.9;63.2
78467;SHT31;67759;51.972;5.650;2023-04-09T03:56:38;11.9;63.0
78467;SHT31;67759;51.972;5.650;2023-04-09T03:59:08;11.9;62.8
78467;SHT31;67759;51.972;5.650;2023-04-09T04:01:38;11.9;62.3
78467;SHT31;67759;51.972;5.650;2023-04-09T04:04:07;11.9;62.3
78467;SHT31;67759;51.972;5.650;2023-04-09T04:06:39;11.9;62.0
78467;SHT31;67759;51.972;5.650;2023-04-09T04:09:08;11.9;61.4
78467;SHT31;67759;51.972;5.650;2023-04-09T04:11:38;11.9;60.9
78467;SHT31;67759;51.972;5.650;2023-04-09T04:14:07;11.9;60.6
78467;SHT31;67759;51.972;5.650;2023-04-09T04:16:39;11.8;60.6
78467;SHT31;67759;51.972;5.650;2023-04-09T04:19:08;11.8;60.8
78467;SHT31;67759;51.972;5.650;2023-04-09T04:21:38;11.8;60.8
78467;SHT31;67759;51.972;5.650;2023-04-09T04:24:08;11.8;60.8
78467;SHT31;67759;51.972;5.650;2023-04-09T04:26:38;11.8;61.0
78467;SHT31;67759;51.972;5.650;2023-04-09T04:29:08;11.8;61.3
78467;SHT31;67759;51.972;5.650;2023-04-09T04:31:38;11.8;61.4
78467;SHT31;67759;51.972;5.650;2023-04-09T04:34:09;11.9;61.7
78467;SHT31;67759;51.972;5.650;2023-04-09T04:36:40;11.9;62.3
78467;SHT31;67759;51.972;5.650;2023-04-09T04:39:10;11.9;61.8
78467;SHT31;67759;51.972;5.650;2023-04-09T04:41:39;11.9;61.9
78467;SHT31;67759;51.972;5.650;2023-04-09T04:44:09;11.9;62.6
78467;SHT31;67759;51.972;5.650;2023-04-09T04:46:41;11.9;62.4
78467;SHT31;67759;51.972;5.650;2023-04-09T04:49:10;11.9;62.6
78467;SHT31;67759;51.972;5.650;2023-04-09T04:51:40;11.9;62.7
78467;SHT31;67759;51.972;5.650;2023-04-09T04:54:09;11.9;63.0
78467;SHT31;67759;51.972;5.650;2023-04-09T04:56:39;11.9;63.0
78467;SHT31;67759;51.972;5.650;2023-04-09T04:59:10;11.9;63.3
78467;SHT31;67759;51.972;5.650;2023-04-09T05:01:40;11.9;63.5
78467;SHT31;67759;51.972;5.650;2023-04-09T05:04:10;11.8;63.7
78467;SHT31;67759;51.972;5.650;2023-04-09T05:06:40;11.8;63.6
78467;SHT31;67759;51.972;5.650;2023-04-09T05:09:09;11.8;63.5
78467;SHT31;67759;51.972;5.650;2023-04-09T05:11:39;11.7;63.7
78467;SHT31;67759;51.972;5.650;2023-04-09T05:14:09;11.7;64.0
78467;SHT31;67759;51.972;5.650;2023-04-09T05:16:39;11.6;64.3
78467;SHT31;67759;51.972;5.650;2023-04-09T05:19:11;11.6;64.5
78467;SHT31;67759;51.972;5.650;2023-04-09T05:21:40;11.6;64.7
78467;SHT31;67759;51.972;5.650;2023-04-09T05:24:10;11.6;64.6
78467;SHT31;67759;51.972;5.650;2023-04-09T05:26:39;11.5;64.3
78467;SHT31;67759;51.972;5.650;2023-04-09T05:29:09;11.5;64.4
78467;SHT31;67759;51.972;5.650;2023-04-09T05:31:39;11.5;64.6
78467;SHT31;67759;51.972;5.650;2023-04-09T05:34:09;11.5;64.7
78467;SHT31;67759;51.972;5.650;2023-04-09T05:36:39;11.5;64.6
78467;SHT31;67759;51.972;5.650;2023-04-09T05:39:10;11.5;64.3
78467;SHT31;67759;51.972;5.650;2023-04-09T05:41:40;11.5;63.8
78467;SHT31;67759;51.972;5.650;2023-04-09T05:44:11;11.5;63.1
78467;SHT31;67759;51.972;5.650;2023-04-09T05:46:41;11.5;62.6
78467;SHT31;67759;51.972;5.650;2023-04-09T05:49:11;11.4;62.3
78467;SHT31;67759;51.972;5.650;2023-04-09T05:51:41;11.3;61.4
78467;SHT31;67759;51.972;5.650;2023-04-09T05:54:11;11.2;61.2
78467;SHT31;67759;51.972;5.650;2023-04-09T05:56:41;11.1;61.6
78467;SHT31;67759;51.972;5.650;2023-04-09T05:59:11;11.0;62.0
78467;SHT31;67759;51.972;5.650;2023-04-09T06:01:41;10.9;62.6
78467;SHT31;67759;51.972;5.650;2023-04-09T06:04:10;10.8;63.1
78467;SHT31;67759;51.972;5.650;2023-04-09T06:06:40;10.8;63.1
78467;SHT31;67759;51.972;5.650;2023-04-09T06:09:10;10.7;63.2
78467;SHT31;67759;51.972;5.650;2023-04-09T06:11:40;10.7;63.7
78467;SHT31;67759;51.972;5.650;2023-04-09T06:14:10;10.6;63.5
78467;SHT31;67759;51.972;5.650;2023-04-09T06:16:44;10.6;63.9
78467;SHT31;67759;51.972;5.650;2023-04-09T06:19:14;10.6;64.2
78467;SHT31;67759;51.972;5.650;2023-04-09T06:21:44;10.6;64.5
78467;SHT31;67759;51.972;5.650;2023-04-09T06:24:14;10.6;64.1
78467;SHT31;67759;51.972;5.650;2023-04-09T06:26:43;10.6;64.2
78467;SHT31;67759;51.972;5.650;2023-04-09T06:29:13;10.6;63.8
78467;SHT31;67759;51.972;5.650;2023-04-09T06:31:43;10.6;64.0
78467;SHT31;67759;51.972;5.650;2023-04-09T06:34:13;10.7;63.5
78467;SHT31;67759;51.972;5.650;2023-04-09T06:36:43;10.7;63.3
78467;SHT31;67759;51.972;5.650;2023-04-09T06:39:12;10.7;63.3
78467;SHT31;67759;51.972;5.650;2023-04-09T06:41:42;10.8;62.2
78467;SHT31;67759;51.972;5.650;2023-04-09T06:44:12;10.9;62.2
78467;SHT31;67759;51.972;5.650;2023-04-09T06:46:42;10.9;61.8
78467;SHT31;67759;51.972;5.650;2023-04-09T06:49:12;11.0;61.7
78467;SHT31;67759;51.972;5.650;2023-04-09T06:51:42;11.0;61.7
78467;SHT31;67759;51.972;5.650;2023-04-09T06:54:12;11.1;61.8
78467;SHT31;67759;51.972;5.650;2023-04-09T06:56:41;11.2;61.2
78467;SHT31;67759;51.972;5.650;2023-04-09T06:59:11;11.3;61.0
78467;SHT31;67759;51.972;5.650;2023-04-09T07:01:40;11.4;60.6
78467;SHT31;67759;51.972;5.650;2023-04-09T07:04:10;11.4;60.6
78467;SHT31;67759;51.972;5.650;2023-04-09T07:06:40;11.5;60.1
78467;SHT31;67759;51.972;5.650;2023-04-09T07:09:09;11.6;60.5
78467;SHT31;67759;51.972;5.650;2023-04-09T07:11:39;11.6;59.9
78467;SHT31;67759;51.972;5.650;2023-04-09T07:14:08;11.7;60.2
78467;SHT31;67759;51.972;5.650;2023-04-09T07:16:38;11.7;59.8
78467;SHT31;67759;51.972;5.650;2023-04-09T07:19:09;11.7;59.5
78467;SHT31;67759;51.972;5.650;2023-04-09T07:21:38;11.7;59.8
78467;SHT31;67759;51.972;5.650;2023-04-09T07:24:08;11.7;60.0
78467;SHT31;67759;51.972;5.650;2023-04-09T07:26:40;11.7;60.3
78467;SHT31;67759;51.972;5.650;2023-04-09T07:29:10;11.7;60.1
78467;SHT31;67759;51.972;5.650;2023-04-09T07:31:40;11.8;59.9
78467;SHT31;67759;51.972;5.650;2023-04-09T07:34:11;11.8;60.5
78467;SHT31;67759;51.972;5.650;2023-04-09T07:36:40;11.8;60.3
78467;SHT31;67759;51.972;5.650;2023-04-09T07:39:11;11.8;60.6
78467;SHT31;67759;51.972;5.650;2023-04-09T07:41:40;11.9;61.0
78467;SHT31;67759;51.972;5.650;2023-04-09T07:44:12;11.9;60.6
78467;SHT31;67759;51.972;5.650;2023-04-09T07:46:42;12.0;59.5
78467;SHT31;67759;51.972;5.650;2023-04-09T07:49:14;12.1;59.4
78467;SHT31;67759;51.972;5.650;2023-04-09T07:51:44;12.1;59.2
78467;SHT31;67759;51.972;5.650;2023-04-09T07:54:13;12.2;59.2
78467;SHT31;67759;51.972;5.650;2023-04-09T07:56:43;12.2;59.5
78467;SHT31;67759;51.972;5.650;2023-04-09T07:59:12;12.3;59.2
78467;SHT31;67759;51.972;5.650;2023-04-09T08:01:43;12.3;58.9
78467;SHT31;67759;51.972;5.650;2023-04-09T08:04:15;12.4;58.6
78467;SHT31;67759;51.972;5.650;2023-04-09T08:06:44;12.4;59.3
78467;SHT31;67759;51.972;5.650;2023-04-09T08:09:17;12.4;58.6
78467;SHT31;67759;51.972;5.650;2023-04-09T08:11:48;12.4;58.7
78467;SHT31;67759;51.972;5.650;2023-04-09T08:14:17;12.5;58.8
78467;SHT31;67759;51.972;5.650;2023-04-09T08:16:48;12.5;59.0
78467;SHT31;67759;51.972;5.650;2023-04-09T08:19:18;12.5;59.2
78467;SHT31;67759;51.972;5.650;2023-04-09T08:21:48;12.6;59.5
78467;SHT31;67759;51.972;5.650;2023-04-09T08:24:20;12.7;58.9
78467;SHT31;67759;51.972;5.650;2023-04-09T08:26:50;12.9;58.5
78467;SHT31;67759;51.972;5.650;2023-04-09T08:29:20;13.0;57.7
78467;SHT31;67759;51.972;5.650;2023-04-09T08:31:51;13.1;57.0
78467;SHT31;67759;51.972;5.650;2023-04-09T08:34:21;13.2;57.0
78467;SHT31;67759;51.972;5.650;2023-04-09T08:36:52;13.3;56.4
78467;SHT31;67759;51.972;5.650;2023-04-09T08:39:25;13.3;57.4
78467;SHT31;67759;51.972;5.650;2023-04-09T08:41:57;13.4;56.7
78467;SHT31;67759;51.972;5.650;2023-04-09T08:44:29;13.4;55.9
78467;SHT31;67759;51.972;5.650;2023-04-09T08:46:59;13.5;56.1
78467;SHT31;67759;51.972;5.650;2023-04-09T08:49:29;13.6;55.6
78467;SHT31;67759;51.972;5.650;2023-04-09T08:51:59;13.6;55.5
78467;SHT31;67759;51.972;5.650;2023-04-09T08:54:32;13.7;54.6
78467;SHT31;67759;51.972;5.650;2023-04-09T08:57:05;13.7;53.5
78467;SHT31;67759;51.972;5.650;2023-04-09T08:59:35;13.7;53.6
78467;SHT31;67759;51.972;5.650;2023-04-09T09:02:08;13.8;53.6
78467;SHT31;67759;51.972;5.650;2023-04-09T09:04:45;13.8;54.4
78467;SHT31;67759;51.972;5.650;2023-04-09T09:07:17;13.9;53.9
78467;SHT31;67759;51.972;5.650;2023-04-09T09:09:58;14.0;53.8
78467;SHT31;67759;51.972;5.650;2023-04-09T09:12:34;14.1;53.7
78467;SHT31;67759;51.972;5.650;2023-04-09T09:15:26;14.2;53.1
78467;SHT31;67759;51.972;5.650;2023-04-09T09:17:58;14.3;53.8
78467;SHT31;67759;51.972;5.650;2023-04-09T09:20:29;14.4;52.1
78467;SHT31;67759;51.972;5.650;2023-04-09T09:22:59;14.5;51.4
78467;SHT31;67759;51.972;5.650;2023-04-09T09:25:29;14.5;51.3
78467;SHT31;67759;51.972;5.650;2023-04-09T09:28:08;14.6;51.2
78467;SHT31;67759;51.972;5.650;2023-04-09T09:30:39;14.6;52.2
78467;SHT31;67759;51.972;5.650;2023-04-09T09:33:10;14.7;51.6
78467;SHT31;67759;51.972;5.650;2023-04-09T09:35:51;14.7;51.6
78467;SHT31;67759;51.972;5.650;2023-04-09T09:38:22;14.9;50.7
78467;SHT31;67759;51.972;5.650;2023-04-09T09:40:52;15.0;51.4
78467;SHT31;67759;51.972;5.650;2023-04-09T09:43:22;15.0;51.3
78467;SHT31;67759;51.972;5.650;2023-04-09T09:45:52;15.2;50.0
78467;SHT31;67759;51.972;5.650;2023-04-09T09:48:22;15.3;50.1
78467;SHT31;67759;51.972;5.650;2023-04-09T09:50:52;15.4;49.0
78467;SHT31;67759;51.972;5.650;2023-04-09T09:53:26;15.4;48.2
78467;SHT31;67759;51.972;5.650;2023-04-09T09:55:59;15.5;48.8
78467;SHT31;67759;51.972;5.650;2023-04-09T09:58:33;15.6;48.5
78467;SHT31;67759;51.972;5.650;2023-04-09T10:01:09;15.7;48.5
78467;SHT31;67759;51.972;5.650;2023-04-09T10:03:43;15.9;47.1
78467;SHT31;67759;51.972;5.650;2023-04-09T10:06:14;16.0;46.7
78467;SHT31;67759;51.972;5.650;2023-04-09T10:08:46;16.1;47.1
78467;SHT31;67759;51.972;5.650;2023-04-09T10:11:17;16.2;46.1
78467;SHT31;67759;51.972;5.650;2023-04-09T10:13:54;16.3;46.0
78467;SHT31;67759;51.972;5.650;2023-04-09T10:16:25;16.4;46.9
78467;SHT31;67759;51.972;5.650;2023-04-09T10:18:57;16.5;45.2
78467;SHT31;67759;51.972;5.650;2023-04-09T10:21:34;16.5;44.7
78467;SHT31;67759;51.972;5.650;2023-04-09T10:24:09;16.5;45.0
78467;SHT31;67759;51.972;5.650;2023-04-09T10:26:42;16.6;45.3
78467;SHT31;67759;51.972;5.650;2023-04-09T10:29:15;16.6;44.7
78467;SHT31;67759;51.972;5.650;2023-04-09T10:32:05;16.6;43.9
78467;SHT31;67759;51.972;5.650;2023-04-09T10:34:39;16.6;45.0
78467;SHT31;67759;51.972;5.650;2023-04-09T10:37:13;16.6;45.0
78467;SHT31;67759;51.972;5.650;2023-04-09T10:39:46;16.6;44.7
78467;SHT31;67759;51.972;5.650;2023-04-09T10:42:21;16.7;45.0
78467;SHT31;67759;51.972;5.650;2023-04-09T10:45:06;16.8;44.3
78467;SHT31;67759;51.972;5.650;2023-04-09T10:47:38;16.8;43.6
78467;SHT31;67759;51.972;5.650;2023-04-09T10:50:19;16.8;43.9
78467;SHT31;67759;51.972;5.650;2023-04-09T10:52:55;16.9;44.1
78467;SHT31;67759;51.972;5.650;2023-04-09T10:55:37;16.9;44.5
78467;SHT31;67759;51.972;5.650;2023-04-09T10:58:10;16.9;44.0
78467;SHT31;67759;51.972;5.650;2023-04-09T11:00:42;17.0;43.0
78467;SHT31;67759;51.972;5.650;2023-04-09T11:03:22;17.0;43.7
78467;SHT31;67759;51.972;5.650;2023-04-09T11:06:04;17.0;43.1
78467;SHT31;67759;51.972;5.650;2023-04-09T11:08:37;17.1;43.6
78467;SHT31;67759;51.972;5.650;2023-04-09T11:11:08;17.1;44.3
78467;SHT31;67759;51.972;5.650;2023-04-09T11:13:40;17.3;43.7
78467;SHT31;67759;51.972;5.650;2023-04-09T11:16:10;17.5;42.0
78467;SHT31;67759;51.972;5.650;2023-04-09T11:18:46;17.6;41.3
78467;SHT31;67759;51.972;5.650;2023-04-09T11:21:16;17.8;42.0
78467;SHT31;67759;51.972;5.650;2023-04-09T11:23:53;18.0;40.8
78467;SHT31;67759;51.972;5.650;2023-04-09T11:26:35;18.1;41.9
78467;SHT31;67759;51.972;5.650;2023-04-09T11:29:08;18.2;39.6
78467;SHT31;67759;51.972;5.650;2023-04-09T11:31:43;18.3;40.5
78467;SHT31;67759;51.972;5.650;2023-04-09T11:34:12;18.6;39.8
78467;SHT31;67759;51.972;5.650;2023-04-09T11:36:49;18.8;38.3
78467;SHT31;67759;51.972;5.650;2023-04-09T11:39:19;18.9;37.3
78467;SHT31;67759;51.972;5.650;2023-04-09T11:41:49;19.0;37.5
78467;SHT31;67759;51.972;5.650;2023-04-09T11:44:19;19.1;37.2
78467;SHT31;67759;51.972;5.650;2023-04-09T11:46:49;19.1;36.6
78467;SHT31;67759;51.972;5.650;2023-04-09T11:49:18;19.1;38.0
78467;SHT31;67759;51.972;5.650;2023-04-09T11:51:49;19.0;35.8
78467;SHT31;67759;51.972;5.650;2023-04-09T11:54:19;19.0;37.9
78467;SHT31;67759;51.972;5.650;2023-04-09T11:56:50;19.0;37.1
78467;SHT31;67759;51.972;5.650;2023-04-09T11:59:22;19.0;38.6
78467;SHT31;67759;51.972;5.650;2023-04-09T12:01:52;19.0;36.8
78467;SHT31;67759;51.972;5.650;2023-04-09T12:04:21;19.0;39.1
78467;SHT31;67759;51.972;5.650;2023-04-09T12:06:55;19.0;37.4
78467;SHT31;67759;51.972;5.650;2023-04-09T12:09:25;19.0;38.7
78467;SHT31;67759;51.972;5.650;2023-04-09T12:11:55;19.1;36.4
78467;SHT31;67759;51.972;5.650;2023-04-09T12:14:26;19.1;35.8
78467;SHT31;67759;51.972;5.650;2023-04-09T12:16:56;19.1;36.0
78467;SHT31;67759;51.972;5.650;2023-04-09T12:19:25;19.2;35.9
78467;SHT31;67759;51.972;5.650;2023-04-09T12:21:55;19.2;37.0
78467;SHT31;67759;51.972;5.650;2023-04-09T12:24:25;19.3;34.8
78467;SHT31;67759;51.972;5.650;2023-04-09T12:26:55;19.3;34.7
78467;SHT31;67759;51.972;5.650;2023-04-09T12:29:25;19.3;35.5
78467;SHT31;67759;51.972;5.650;2023-04-09T12:31:56;19.3;36.8
78467;SHT31;67759;51.972;5.650;2023-04-09T12:34:26;19.4;34.8
78467;SHT31;67759;51.972;5.650;2023-04-09T12:36:56;19.3;35.1
78467;SHT31;67759;51.972;5.650;2023-04-09T12:39:27;19.3;34.2
78467;SHT31;67759;51.972;5.650;2023-04-09T12:41:57;19.3;35.3
78467;SHT31;67759;51.972;5.650;2023-04-09T12:44:27;19.3;35.3
78467;SHT31;67759;51.972;5.650;2023-04-09T12:46:56;19.3;34.8
78467;SHT31;67759;51.972;5.650;2023-04-09T12:49:26;19.4;35.7
78467;SHT31;67759;51.972;5.650;2023-04-09T12:51:55;19.4;35.7
78467;SHT31;67759;51.972;5.650;2023-04-09T12:54:26;19.5;36.1
78467;SHT31;67759;51.972;5.650;2023-04-09T12:56:56;19.5;34.9
78467;SHT31;67759;51.972;5.650;2023-04-09T12:59:26;19.6;37.0
78467;SHT31;67759;51.972;5.650;2023-04-09T13:01:55;19.6;37.7
78467;SHT31;67759;51.972;5.650;2023-04-09T13:04:25;19.7;35.1
78467;SHT31;67759;51.972;5.650;2023-04-09T13:06:56;19.8;34.5
78467;SHT31;67759;51.972;5.650;2023-04-09T13:09:26;19.8;34.0
78467;SHT31;67759;51.972;5.650;2023-04-09T13:11:55;19.8;34.8
78467;SHT31;67759;51.972;5.650;2023-04-09T13:14:25;19.9;34.2
78467;SHT31;67759;51.972;5.650;2023-04-09T13:16:54;19.9;35.0
78467;SHT31;67759;51.972;5.650;2023-04-09T13:19:24;19.9;35.5
78467;SHT31;67759;51.972;5.650;2023-04-09T13:21:54;20.0;35.3
78467;SHT31;67759;51.972;5.650;2023-04-09T13:24:24;20.0;35.9
78467;SHT31;67759;51.972;5.650;2023-04-09T13:26:54;20.2;35.3
78467;SHT31;67759;51.972;5.650;2023-04-09T13:29:23;20.3;34.1
78467;SHT31;67759;51.972;5.650;2023-04-09T13:31:56;20.3;34.5
78467;SHT31;67759;51.972;5.650;2023-04-09T13:34:28;20.4;34.9
78467;SHT31;67759;51.972;5.650;2023-04-09T13:36:58;20.5;34.4
78467;SHT31;67759;51.972;5.650;2023-04-09T13:39:27;20.6;35.4
78467;SHT31;67759;51.972;5.650;2023-04-09T13:41:57;20.7;32.8
78467;SHT31;67759;51.972;5.650;2023-04-09T13:44:28;20.7;34.4
78467;SHT31;67759;51.972;5.650;2023-04-09T13:46:57;20.7;32.6
78467;SHT31;67759;51.972;5.650;2023-04-09T13:49:27;20.8;32.9
78467;SHT31;67759;51.972;5.650;2023-04-09T13:51:57;20.8;32.8
78467;SHT31;67759;51.972;5.650;2023-04-09T13:54:27;20.8;34.1
78467;SHT31;67759;51.972;5.650;2023-04-09T13:57:00;20.8;33.2
78467;SHT31;67759;51.972;5.650;2023-04-09T13:59:30;20.9;32.9
78467;SHT31;67759;51.972;5.650;2023-04-09T14:01:59;21.0;33.7
78467;SHT31;67759;51.972;5.650;2023-04-09T14:04:29;21.1;32.8
78467;SHT31;67759;51.972;5.650;2023-04-09T14:06:59;21.1;35.5
78467;SHT31;67759;51.972;5.650;2023-04-09T14:09:28;21.2;33.6
78467;SHT31;67759;51.972;5.650;2023-04-09T14:11:58;21.3;33.3
78467;SHT31;67759;51.972;5.650;2023-04-09T14:14:28;21.3;33.0
78467;SHT31;67759;51.972;5.650;2023-04-09T14:17:00;21.3;31.6
78467;SHT31;67759;51.972;5.650;2023-04-09T14:19:29;21.3;33.9
78467;SHT31;67759;51.972;5.650;2023-04-09T14:21:59;21.3;32.2
78467;SHT31;67759;51.972;5.650;2023-04-09T14:24:28;21.3;33.7
78467;SHT31;67759;51.972;5.650;2023-04-09T14:27:01;21.2;31.9
78467;SHT31;67759;51.972;5.650;2023-04-09T14:29:31;21.2;32.1
78467;SHT31;67759;51.972;5.650;2023-04-09T14:32:01;21.3;31.5
78467;SHT31;67759;51.972;5.650;2023-04-09T14:34:30;21.3;31.5
78467;SHT31;67759;51.972;5.650;2023-04-09T14:37:00;21.4;31.2
78467;SHT31;67759;51.972;5.650;2023-04-09T14:39:29;21.4;32.1
78467;SHT31;67759;51.972;5.650;2023-04-09T14:41:59;21.4;31.7
78467;SHT31;67759;51.972;5.650;2023-04-09T14:44:30;21.3;32.2
78467;SHT31;67759;51.972;5.650;2023-04-09T14:47:01;21.3;31.0
78467;SHT31;67759;51.972;5.650;2023-04-09T14:49:30;21.3;31.8
78467;SHT31;67759;51.972;5.650;2023-04-09T14:52:00;21.3;31.8
78467;SHT31;67759;51.972;5.650;2023-04-09T14:54:30;21.2;31.2
78467;SHT31;67759;51.972;5.650;2023-04-09T14:57:00;21.2;32.4
78467;SHT31;67759;51.972;5.650;2023-04-09T14:59:31;21.2;31.6
78467;SHT31;67759;51.972;5.650;2023-04-09T15:02:00;21.1;30.8
78467;SHT31;67759;51.972;5.650;2023-04-09T15:04:30;21.1;34.2
78467;SHT31;67759;51.972;5.650;2023-04-09T15:06:59;21.1;34.4
78467;SHT31;67759;51.972;5.650;2023-04-09T15:09:29;21.2;32.9
78467;SHT31;67759;51.972;5.650;2023-04-09T15:11:59;21.5;33.2
78467;SHT31;67759;51.972;5.650;2023-04-09T15:14:29;21.9;31.3
78467;SHT31;67759;51.972;5.650;2023-04-09T15:16:59;22.1;31.4
78467;SHT31;67759;51.972;5.650;2023-04-09T15:19:29;22.2;31.9
78467;SHT31;67759;51.972;5.650;2023-04-09T15:21:59;22.3;30.6
78467;SHT31;67759;51.972;5.650;2023-04-09T15:24:29;22.5;30.5
78467;SHT31;67759;51.972;5.650;2023-04-09T15:26:58;22.6;29.9
78467;SHT31;67759;51.972;5.650;2023-04-09T15:29:28;22.7;29.4
78467;SHT31;67759;51.972;5.650;2023-04-09T15:31:58;22.7;29.1
78467;SHT31;67759;51.972;5.650;2023-04-09T15:34:28;22.6;29.0
78467;SHT31;67759;51.972;5.650;2023-04-09T15:36:59;22.6;30.0
78467;SHT31;67759;51.972;5.650;2023-04-09T15:39:29;22.5;30.4
78467;SHT31;67759;51.972;5.650;2023-04-09T15:41:59;22.6;30.2
78467;SHT31;67759;51.972;5.650;2023-04-09T15:44:31;22.6;30.3
78467;SHT31;67759;51.972;5.650;2023-04-09T15:47:01;22.7;30.3
78467;SHT31;67759;51.972;5.650;2023-04-09T15:49:30;22.8;30.2
78467;SHT31;67759;51.972;5.650;2023-04-09T15:52:01;23.0;28.8
78467;SHT31;67759;51.972;5.650;2023-04-09T15:54:31;23.1;28.2
78467;SHT31;67759;51.972;5.650;2023-04-09T15:57:00;23.1;28.7
78467;SHT31;67759;51.972;5.650;2023-04-09T15:59:30;23.1;29.8
78467;SHT31;67759;51.972;5.650;2023-04-09T16:02:00;23.1;29.1
78467;SHT31;67759;51.972;5.650;2023-04-09T16:04:32;23.1;29.1
78467;SHT31;67759;51.972;5.650;2023-04-09T16:07:02;23.1;28.7
78467;SHT31;67759;51.972;5.650;2023-04-09T16:09:32;23.1;28.9
78467;SHT31;67759;51.972;5.650;2023-04-09T16:12:02;23.1;29.0
78467;SHT31;67759;51.972;5.650;2023-04-09T16:14:31;23.2;28.7
78467;SHT31;67759;51.972;5.650;2023-04-09T16:17:01;23.3;28.3
78467;SHT31;67759;51.972;5.650;2023-04-09T16:19:31;23.3;28.1
78467;SHT31;67759;51.972;5.650;2023-04-09T16:22:01;23.3;28.6
78467;SHT31;67759;51.972;5.650;2023-04-09T16:24:30;23.2;28.9
78467;SHT31;67759;51.972;5.650;2023-04-09T16:27:02;23.1;29.6